sensor_id;sensor_type;location;lat;lon;timestamp;temperature;humidity
61386;DHT22;47256;18.904;-99.054;2024-01-06T00:01:14;23.80;92.10
61386;DHT22;47256;18.904;-99.054;2024-01-06T00:03:44;23.70;92.80
61386;DHT22;47256;18.904;-99.054;2024-01-06T00:06:14;23.70;93.10
61386;DHT22;47256;18.904;-99.054;2024-01-06T00:08:42;23.60;93.30
61386;DHT22;47256;18.904;-99.054;2024-01-06T00:11:10;23.60;93.60
61386;DHT22;47256;18.904;-99.054;2024-01-06T00:13:37;23.60;94.10
61386;DHT22;47256;18.904;-99.054;2024-01-06T00:16:04;23.50;94.40
61386;DHT22;47256;18.904;-99.054;2024-01-06T00:18:32;23.40;94.60
61386;DHT22;47256;18.904;-99.054;2024-01-06T00:20:59;23.40;94.70
61386;DHT22;47256;18.904;-99.054;2024-01-06T00:23:26;23.30;95.80
61386;DHT22;47256;18.904;-99.054;2024-01-06T00:25:53;23.30;95.50
61386;DHT22;47256;18.904;-99.054;2024-01-06T00:28:20;23.20;95.30
61386;DHT22;47256;18.904;-99.054;2024-01-06T00:30:48;23.20;95.40
61386;DHT22;47256;18.904;-99.054;2024-01-06T00:33:16;23.20;95.50
61386;DHT22;47256;18.904;-99.054;2024-01-06T00:35:43;23.10;95.60
61386;DHT22;47256;18.904;-99.054;2024-01-06T00:38:11;23.00;95.70
61386;DHT22;47256;18.904;-99.054;2024-01-06T00:40:38;22.90;96.40
61386;DHT22;47256;18.904;-99.054;2024-01-06T00:43:06;22.80;96.70
61386;DHT22;47256;18.904;-99.054;2024-01-06T00:45:33;22.80;96.40
61386;DHT22;47256;18.904;-99.054;2024-01-06T00:48:00;22.70;96.20
61386;DHT22;47256;18.904;-99.054;2024-01-06T00:50:27;22.70;95.90
61386;DHT22;47256;18.904;-99.054;2024-01-06T00:52:55;22.70;96.10
61386;DHT22;47256;18.904;-99.054;2024-01-06T00:55:23;22.60;96.40
61386;DHT22;47256;18.904;-99.054;2024-01-06T00:57:51;22.50;96.50
61386;DHT22;47256;18.904;-99.054;2024-01-06T01:00:18;22.50;96.40
61386;DHT22;47256;18.904;-99.054;2024-01-06T01:02:46;22.50;96.20
61386;DHT22;47256;18.904;-99.054;2024-01-06T01:05:13;22.40;96.00
61386;DHT22;47256;18.904;-99.054;2024-01-06T01:07:43;22.40;96.10
61386;DHT22;47256;18.904;-99.054;2024-01-06T01:10:10;22.30;96.90
61386;DHT22;47256;18.904;-99.054;2024-01-06T01:12:37;22.20;97.00
61386;DHT22;47256;18.904;-99.054;2024-01-06T01:15:06;22.20;97.10
61386;DHT22;47256;18.904;-99.054;2024-01-06T01:17:34;22.10;97.10
61386;DHT22;47256;18.904;-99.054;2024-01-06T01:20:01;22.00;97.10
61386;DHT22;47256;18.904;-99.054;2024-01-06T01:22:28;21.90;96.70
61386;DHT22;47256;18.904;-99.054;2024-01-06T01:24:55;21.90;96.60
61386;DHT22;47256;18.904;-99.054;2024-01-06T01:27:24;21.90;96.70
61386;DHT22;47256;18.904;-99.054;2024-01-06T01:29:52;21.80;97.00
61386;DHT22;47256;18.904;-99.054;2024-01-06T01:32:21;21.80;96.80
61386;DHT22;47256;18.904;-99.054;2024-01-06T01:34:50;21.70;97.60
61386;DHT22;47256;18.904;-99.054;2024-01-06T01:37:17;21.60;97.70
61386;DHT22;47256;18.904;-99.054;2024-01-06T01:39:44;21.50;97.20
61386;DHT22;47256;18.904;-99.054;2024-01-06T01:42:12;21.60;97.00
61386;DHT22;47256;18.904;-99.054;2024-01-06T01:44:39;21.60;97.00
61386;DHT22;47256;18.904;-99.054;2024-01-06T01:47:07;21.60;97.40
61386;DHT22;47256;18.904;-99.054;2024-01-06T01:49:35;21.50;97.20
61386;DHT22;47256;18.904;-99.054;2024-01-06T01:52:04;21.50;96.90
61386;DHT22;47256;18.904;-99.054;2024-01-06T01:54:31;21.40;97.20
61386;DHT22;47256;18.904;-99.054;2024-01-06T01:56:59;21.40;96.70
61386;DHT22;47256;18.904;-99.054;2024-01-06T01:59:27;21.30;97.00
61386;DHT22;47256;18.904;-99.054;2024-01-06T02:01:56;21.30;96.90
61386;DHT22;47256;18.904;-99.054;2024-01-06T02:04:23;21.30;97.40
61386;DHT22;47256;18.904;-99.054;2024-01-06T02:06:53;21.20;97.40
61386;DHT22;47256;18.904;-99.054;2024-01-06T02:09:20;21.10;97.50
61386;DHT22;47256;18.904;-99.054;2024-01-06T02:11:49;21.10;97.40
61386;DHT22;47256;18.904;-99.054;2024-01-06T02:14:18;21.10;97.60
61386;DHT22;47256;18.904;-99.054;2024-01-06T02:16:46;21.00;97.60
61386;DHT22;47256;18.904;-99.054;2024-01-06T02:19:13;20.90;97.70
61386;DHT22;47256;18.904;-99.054;2024-01-06T02:21:44;20.90;98.00
61386;DHT22;47256;18.904;-99.054;2024-01-06T02:24:11;20.80;97.60
61386;DHT22;47256;18.904;-99.054;2024-01-06T02:26:38;20.90;97.50
61386;DHT22;47256;18.904;-99.054;2024-01-06T02:29:05;20.90;97.40
61386;DHT22;47256;18.904;-99.054;2024-01-06T02:31:33;20.90;97.40
61386;DHT22;47256;18.904;-99.054;2024-01-06T02:34:00;20.90;97.40
61386;DHT22;47256;18.904;-99.054;2024-01-06T02:36:28;20.90;97.40
61386;DHT22;47256;18.904;-99.054;2024-01-06T02:38:55;21.00;97.30
61386;DHT22;47256;18.904;-99.054;2024-01-06T02:41:23;20.90;97.80
61386;DHT22;47256;18.904;-99.054;2024-01-06T02:43:50;20.90;97.70
61386;DHT22;47256;18.904;-99.054;2024-01-06T02:46:17;20.80;97.90
61386;DHT22;47256;18.904;-99.054;2024-01-06T02:48:46;20.80;97.90
61386;DHT22;47256;18.904;-99.054;2024-01-06T02:51:13;20.80;98.10
61386;DHT22;47256;18.904;-99.054;2024-01-06T02:53:41;20.80;98.10
61386;DHT22;47256;18.904;-99.054;2024-01-06T02:56:12;20.80;98.20
61386;DHT22;47256;18.904;-99.054;2024-01-06T02:58:41;20.70;98.70
61386;DHT22;47256;18.904;-99.054;2024-01-06T03:01:08;20.60;98.50
61386;DHT22;47256;18.904;-99.054;2024-01-06T03:03:36;20.60;98.50
61386;DHT22;47256;18.904;-99.054;2024-01-06T03:06:03;20.60;98.70
61386;DHT22;47256;18.904;-99.054;2024-01-06T03:08:32;20.50;98.90
61386;DHT22;47256;18.904;-99.054;2024-01-06T03:10:59;20.40;99.00
61386;DHT22;47256;18.904;-99.054;2024-01-06T03:13:26;20.30;99.00
61386;DHT22;47256;18.904;-99.054;2024-01-06T03:15:53;20.20;99.10
61386;DHT22;47256;18.904;-99.054;2024-01-06T03:18:21;20.10;99.40
61386;DHT22;47256;18.904;-99.054;2024-01-06T03:20:48;20.00;99.90
61386;DHT22;47256;18.904;-99.054;2024-01-06T03:23:15;19.90;99.90
61386;DHT22;47256;18.904;-99.054;2024-01-06T03:25:42;19.90;99.90
61386;DHT22;47256;18.904;-99.054;2024-01-06T03:28:11;19.90;99.90
61386;DHT22;47256;18.904;-99.054;2024-01-06T03:30:38;19.90;99.90
61386;DHT22;47256;18.904;-99.054;2024-01-06T03:33:06;19.90;99.80
61386;DHT22;47256;18.904;-99.054;2024-01-06T03:35:33;19.90;99.90
61386;DHT22;47256;18.904;-99.054;2024-01-06T03:38:00;19.90;99.90
61386;DHT22;47256;18.904;-99.054;2024-01-06T03:40:28;19.90;99.80
61386;DHT22;47256;18.904;-99.054;2024-01-06T03:42:55;19.90;99.90
61386;DHT22;47256;18.904;-99.054;2024-01-06T03:45:22;19.90;99.90
61386;DHT22;47256;18.904;-99.054;2024-01-06T03:47:49;19.90;99.90
61386;DHT22;47256;18.904;-99.054;2024-01-06T03:50:17;19.80;99.90
61386;DHT22;47256;18.904;-99.054;2024-01-06T03:52:46;19.70;99.90
61386;DHT22;47256;18.904;-99.054;2024-01-06T03:55:16;19.70;99.90
61386;DHT22;47256;18.904;-99.054;2024-01-06T03:57:45;19.70;99.90
61386;DHT22;47256;18.904;-99.054;2024-01-06T04:00:12;19.50;99.70
61386;DHT22;47256;18.904;-99.054;2024-01-06T04:02:44;19.50;99.90
61386;DHT22;47256;18.904;-99.054;2024-01-06T04:05:11;19.40;99.90
61386;DHT22;47256;18.904;-99.054;2024-01-06T04:07:39;19.40;99.90
61386;DHT22;47256;18.904;-99.054;2024-01-06T04:10:08;19.40;99.90
61386;DHT22;47256;18.904;-99.054;2024-01-06T04:12:35;19.40;99.90
61386;DHT22;47256;18.904;-99.054;2024-01-06T04:15:03;19.50;99.90
61386;DHT22;47256;18.904;-99.054;2024-01-06T04:17:30;19.50;99.90
61386;DHT22;47256;18.904;-99.054;2024-01-06T04:19:57;19.40;99.90
61386;DHT22;47256;18.904;-99.054;2024-01-06T04:22:25;19.40;99.90
61386;DHT22;47256;18.904;-99.054;2024-01-06T04:24:52;19.30;99.90
61386;DHT22;47256;18.904;-99.054;2024-01-06T04:27:19;19.20;99.90
61386;DHT22;47256;18.904;-99.054;2024-01-06T04:29:46;19.20;99.90
61386;DHT22;47256;18.904;-99.054;2024-01-06T04:32:13;19.20;99.90
61386;DHT22;47256;18.904;-99.054;2024-01-06T04:34:40;19.30;99.90
61386;DHT22;47256;18.904;-99.054;2024-01-06T04:37:08;19.30;99.90
61386;DHT22;47256;18.904;-99.054;2024-01-06T04:39:37;19.40;99.90
61386;DHT22;47256;18.904;-99.054;2024-01-06T04:42:08;19.40;99.90
61386;DHT22;47256;18.904;-99.054;2024-01-06T04:44:35;19.30;99.90
61386;DHT22;47256;18.904;-99.054;2024-01-06T04:47:02;19.20;99.90
61386;DHT22;47256;18.904;-99.054;2024-01-06T04:49:29;19.20;99.90
61386;DHT22;47256;18.904;-99.054;2024-01-06T04:51:57;19.20;99.90
61386;DHT22;47256;18.904;-99.054;2024-01-06T04:54:49;19.20;99.90
61386;DHT22;47256;18.904;-99.054;2024-01-06T04:57:19;19.10;99.90
61386;DHT22;47256;18.904;-99.054;2024-01-06T04:59:47;19.10;99.90
61386;DHT22;47256;18.904;-99.054;2024-01-06T05:02:15;19.00;99.90
61386;DHT22;47256;18.904;-99.054;2024-01-06T05:04:43;18.90;99.90
61386;DHT22;47256;18.904;-99.054;2024-01-06T05:07:11;18.80;99.90
61386;DHT22;47256;18.904;-99.054;2024-01-06T05:09:39;18.70;99.90
61386;DHT22;47256;18.904;-99.054;2024-01-06T05:12:07;18.70;99.90
61386;DHT22;47256;18.904;-99.054;2024-01-06T05:14:35;18.70;99.90
61386;DHT22;47256;18.904;-99.054;2024-01-06T05:17:03;18.80;99.90
61386;DHT22;47256;18.904;-99.054;2024-01-06T05:19:31;18.70;99.90
61386;DHT22;47256;18.904;-99.054;2024-01-06T05:21:58;18.60;99.90
61386;DHT22;47256;18.904;-99.054;2024-01-06T05:24:26;18.50;99.90
61386;DHT22;47256;18.904;-99.054;2024-01-06T05:26:55;18.50;99.90
61386;DHT22;47256;18.904;-99.054;2024-01-06T05:29:22;18.40;99.90
61386;DHT22;47256;18.904;-99.054;2024-01-06T05:31:50;18.30;99.90
61386;DHT22;47256;18.904;-99.054;2024-01-06T05:34:18;18.20;99.90
61386;DHT22;47256;18.904;-99.054;2024-01-06T05:36:45;18.20;99.90
61386;DHT22;47256;18.904;-99.054;2024-01-06T05:39:13;18.30;99.90
61386;DHT22;47256;18.904;-99.054;2024-01-06T05:41:40;18.30;99.90
61386;DHT22;47256;18.904;-99.054;2024-01-06T05:44:08;18.40;99.90
61386;DHT22;47256;18.904;-99.054;2024-01-06T05:46:35;18.30;99.90
61386;DHT22;47256;18.904;-99.054;2024-01-06T05:49:03;18.40;99.90
61386;DHT22;47256;18.904;-99.054;2024-01-06T05:51:31;18.40;99.90
61386;DHT22;47256;18.904;-99.054;2024-01-06T05:53:58;18.30;99.90
61386;DHT22;47256;18.904;-99.054;2024-01-06T05:56:26;18.40;99.90
61386;DHT22;47256;18.904;-99.054;2024-01-06T05:58:55;18.40;99.90
61386;DHT22;47256;18.904;-99.054;2024-01-06T06:01:22;18.40;99.90
61386;DHT22;47256;18.904;-99.054;2024-01-06T06:03:51;18.40;99.90
61386;DHT22;47256;18.904;-99.054;2024-01-06T06:06:19;18.40;99.90
61386;DHT22;47256;18.904;-99.054;2024-01-06T06:08:47;18.40;99.90
61386;DHT22;47256;18.904;-99.054;2024-01-06T06:11:15;18.40;99.90
61386;DHT22;47256;18.904;-99.054;2024-01-06T06:13:43;18.40;99.90
61386;DHT22;47256;18.904;-99.054;2024-01-06T06:16:11;18.40;99.90
61386;DHT22;47256;18.904;-99.054;2024-01-06T06:18:41;18.30;99.90
61386;DHT22;47256;18.904;-99.054;2024-01-06T06:21:10;18.30;99.90
61386;DHT22;47256;18.904;-99.054;2024-01-06T06:23:38;18.30;99.90
61386;DHT22;47256;18.904;-99.054;2024-01-06T06:26:07;18.30;99.90
61386;DHT22;47256;18.904;-99.054;2024-01-06T06:28:35;18.30;99.90
61386;DHT22;47256;18.904;-99.054;2024-01-06T06:31:03;18.30;99.90
61386;DHT22;47256;18.904;-99.054;2024-01-06T06:33:30;18.30;99.90
61386;DHT22;47256;18.904;-99.054;2024-01-06T06:35:59;18.30;99.90
61386;DHT22;47256;18.904;-99.054;2024-01-06T06:38:28;18.20;99.90
61386;DHT22;47256;18.904;-99.054;2024-01-06T06:40:56;18.20;99.90
61386;DHT22;47256;18.904;-99.054;2024-01-06T06:43:23;18.20;99.90
61386;DHT22;47256;18.904;-99.054;2024-01-06T06:45:51;18.00;99.90
61386;DHT22;47256;18.904;-99.054;2024-01-06T06:48:19;18.00;99.90
61386;DHT22;47256;18.904;-99.054;2024-01-06T06:50:46;18.00;99.90
61386;DHT22;47256;18.904;-99.054;2024-01-06T06:53:13;18.00;99.90
61386;DHT22;47256;18.904;-99.054;2024-01-06T06:55:41;18.00;99.90
61386;DHT22;47256;18.904;-99.054;2024-01-06T06:58:09;17.90;99.90
61386;DHT22;47256;18.904;-99.054;2024-01-06T07:01:02;17.80;99.90
61386;DHT22;47256;18.904;-99.054;2024-01-06T07:03:29;17.80;99.90
61386;DHT22;47256;18.904;-99.054;2024-01-06T07:05:57;17.70;99.90
61386;DHT22;47256;18.904;-99.054;2024-01-06T07:08:25;17.70;99.90
61386;DHT22;47256;18.904;-99.054;2024-01-06T07:10:52;17.60;99.90
61386;DHT22;47256;18.904;-99.054;2024-01-06T07:13:20;17.50;99.90
61386;DHT22;47256;18.904;-99.054;2024-01-06T07:15:47;17.50;99.90
61386;DHT22;47256;18.904;-99.054;2024-01-06T07:18:14;17.40;99.90
61386;DHT22;47256;18.904;-99.054;2024-01-06T07:20:42;17.30;99.90
61386;DHT22;47256;18.904;-99.054;2024-01-06T07:23:10;17.30;99.90
61386;DHT22;47256;18.904;-99.054;2024-01-06T07:25:37;17.30;99.90
61386;DHT22;47256;18.904;-99.054;2024-01-06T07:28:04;17.10;99.90
61386;DHT22;47256;18.904;-99.054;2024-01-06T07:30:36;17.10;99.90
61386;DHT22;47256;18.904;-99.054;2024-01-06T07:33:03;17.00;99.90
61386;DHT22;47256;18.904;-99.054;2024-01-06T07:35:31;17.10;99.90
61386;DHT22;47256;18.904;-99.054;2024-01-06T07:37:58;17.20;99.90
61386;DHT22;47256;18.904;-99.054;2024-01-06T07:40:26;17.30;99.90
61386;DHT22;47256;18.904;-99.054;2024-01-06T07:42:53;17.30;99.90
61386;DHT22;47256;18.904;-99.054;2024-01-06T07:45:21;17.30;99.90
61386;DHT22;47256;18.904;-99.054;2024-01-06T07:47:49;17.40;99.90
61386;DHT22;47256;18.904;-99.054;2024-01-06T07:50:16;17.40;99.90
61386;DHT22;47256;18.904;-99.054;2024-01-06T07:52:43;17.50;99.90
61386;DHT22;47256;18.904;-99.054;2024-01-06T07:55:17;17.40;99.90
61386;DHT22;47256;18.904;-99.054;2024-01-06T07:57:45;17.40;99.90
61386;DHT22;47256;18.904;-99.054;2024-01-06T08:00:13;17.30;99.90
61386;DHT22;47256;18.904;-99.054;2024-01-06T08:02:43;17.30;99.90
61386;DHT22;47256;18.904;-99.054;2024-01-06T08:05:16;17.30;99.90
61386;DHT22;47256;18.904;-99.054;2024-01-06T08:07:43;17.30;99.90
61386;DHT22;47256;18.904;-99.054;2024-01-06T08:10:13;17.30;99.90
61386;DHT22;47256;18.904;-99.054;2024-01-06T08:12:40;17.30;99.90
61386;DHT22;47256;18.904;-99.054;2024-01-06T08:15:08;17.30;99.90
61386;DHT22;47256;18.904;-99.054;2024-01-06T08:17:36;17.30;99.90
61386;DHT22;47256;18.904;-99.054;2024-01-06T08:20:04;17.30;99.90
61386;DHT22;47256;18.904;-99.054;2024-01-06T08:22:32;17.20;99.90
61386;DHT22;47256;18.904;-99.054;2024-01-06T08:24:59;17.30;99.90
61386;DHT22;47256;18.904;-99.054;2024-01-06T08:27:27;17.20;99.90
61386;DHT22;47256;18.904;-99.054;2024-01-06T08:29:54;17.30;99.90
61386;DHT22;47256;18.904;-99.054;2024-01-06T08:32:21;17.20;99.90
61386;DHT22;47256;18.904;-99.054;2024-01-06T08:34:48;17.00;99.90
61386;DHT22;47256;18.904;-99.054;2024-01-06T08:37:16;17.00;99.90
61386;DHT22;47256;18.904;-99.054;2024-01-06T08:39:43;17.00;99.90
61386;DHT22;47256;18.904;-99.054;2024-01-06T08:42:14;17.00;99.90
61386;DHT22;47256;18.904;-99.054;2024-01-06T08:44:42;17.00;99.90
61386;DHT22;47256;18.904;-99.054;2024-01-06T08:47:10;17.00;99.90
61386;DHT22;47256;18.904;-99.054;2024-01-06T08:49:37;17.00;99.90
61386;DHT22;47256;18.904;-99.054;2024-01-06T08:52:05;17.10;99.90
61386;DHT22;47256;18.904;-99.054;2024-01-06T08:54:32;17.10;99.90
61386;DHT22;47256;18.904;-99.054;2024-01-06T08:57:01;17.00;99.90
61386;DHT22;47256;18.904;-99.054;2024-01-06T08:59:29;17.00;99.90
61386;DHT22;47256;18.904;-99.054;2024-01-06T09:01:56;17.00;99.90
61386;DHT22;47256;18.904;-99.054;2024-01-06T09:04:28;17.00;99.90
61386;DHT22;47256;18.904;-99.054;2024-01-06T09:06:56;16.90;99.90
61386;DHT22;47256;18.904;-99.054;2024-01-06T09:09:24;16.90;99.90
61386;DHT22;47256;18.904;-99.054;2024-01-06T09:11:51;16.80;99.90
61386;DHT22;47256;18.904;-99.054;2024-01-06T09:14:19;16.70;99.90
61386;DHT22;47256;18.904;-99.054;2024-01-06T09:16:46;16.60;99.90
61386;DHT22;47256;18.904;-99.054;2024-01-06T09:19:14;16.50;99.90
61386;DHT22;47256;18.904;-99.054;2024-01-06T09:21:41;16.50;99.90
61386;DHT22;47256;18.904;-99.054;2024-01-06T09:24:09;16.60;99.90
61386;DHT22;47256;18.904;-99.054;2024-01-06T09:26:36;16.50;99.90
61386;DHT22;47256;18.904;-99.054;2024-01-06T09:29:03;16.40;99.90
61386;DHT22;47256;18.904;-99.054;2024-01-06T09:31:31;16.40;99.90
61386;DHT22;47256;18.904;-99.054;2024-01-06T09:34:01;16.40;99.90
61386;DHT22;47256;18.904;-99.054;2024-01-06T09:36:31;16.30;99.90
61386;DHT22;47256;18.904;-99.054;2024-01-06T09:38:58;16.30;99.90
61386;DHT22;47256;18.904;-99.054;2024-01-06T09:41:26;16.40;99.90
61386;DHT22;47256;18.904;-99.054;2024-01-06T09:43:53;16.40;99.90
61386;DHT22;47256;18.904;-99.054;2024-01-06T09:46:24;16.40;99.90
61386;DHT22;47256;18.904;-99.054;2024-01-06T09:48:54;16.40;99.90
61386;DHT22;47256;18.904;-99.054;2024-01-06T09:51:22;16.40;99.90
61386;DHT22;47256;18.904;-99.054;2024-01-06T09:54:04;16.40;99.90
61386;DHT22;47256;18.904;-99.054;2024-01-06T09:56:35;16.40;99.90
61386;DHT22;47256;18.904;-99.054;2024-01-06T09:59:05;16.40;99.90
61386;DHT22;47256;18.904;-99.054;2024-01-06T10:01:33;16.40;99.90
61386;DHT22;47256;18.904;-99.054;2024-01-06T10:04:00;16.40;99.90
61386;DHT22;47256;18.904;-99.054;2024-01-06T10:06:31;16.40;99.90
61386;DHT22;47256;18.904;-99.054;2024-01-06T10:08:58;16.30;99.90
61386;DHT22;47256;18.904;-99.054;2024-01-06T10:11:26;16.30;99.90
61386;DHT22;47256;18.904;-99.054;2024-01-06T10:13:53;16.20;99.90
61386;DHT22;47256;18.904;-99.054;2024-01-06T10:16:21;16.10;99.90
61386;DHT22;47256;18.904;-99.054;2024-01-06T10:18:49;16.10;99.90
61386;DHT22;47256;18.904;-99.054;2024-01-06T10:21:16;16.10;99.90
61386;DHT22;47256;18.904;-99.054;2024-01-06T10:23:44;16.10;99.90
61386;DHT22;47256;18.904;-99.054;2024-01-06T10:26:13;16.00;99.90
61386;DHT22;47256;18.904;-99.054;2024-01-06T10:28:41;16.00;99.90
61386;DHT22;47256;18.904;-99.054;2024-01-06T10:31:10;15.80;99.90
61386;DHT22;47256;18.904;-99.054;2024-01-06T10:33:37;15.80;99.90
61386;DHT22;47256;18.904;-99.054;2024-01-06T10:36:07;15.90;99.90
61386;DHT22;47256;18.904;-99.054;2024-01-06T10:38:36;15.90;99.90
61386;DHT22;47256;18.904;-99.054;2024-01-06T10:41:04;15.90;99.90
61386;DHT22;47256;18.904;-99.054;2024-01-06T10:43:36;15.90;99.90
61386;DHT22;47256;18.904;-99.054;2024-01-06T10:46:19;15.80;99.90
61386;DHT22;47256;18.904;-99.054;2024-01-06T10:48:46;15.80;99.90
61386;DHT22;47256;18.904;-99.054;2024-01-06T10:51:14;15.90;99.90
61386;DHT22;47256;18.904;-99.054;2024-01-06T10:53:42;15.80;99.90
61386;DHT22;47256;18.904;-99.054;2024-01-06T10:56:12;15.80;99.90
61386;DHT22;47256;18.904;-99.054;2024-01-06T10:58:46;15.80;99.90
61386;DHT22;47256;18.904;-99.054;2024-01-06T11:01:19;15.80;99.90
61386;DHT22;47256;18.904;-99.054;2024-01-06T11:03:48;15.80;99.90
61386;DHT22;47256;18.904;-99.054;2024-01-06T11:06:18;15.90;99.90
61386;DHT22;47256;18.904;-99.054;2024-01-06T11:11:27;15.90;99.90
61386;DHT22;47256;18.904;-99.054;2024-01-06T11:16:46;15.80;99.90
61386;DHT22;47256;18.904;-99.054;2024-01-06T11:24:49;15.70;99.90
61386;DHT22;47256;18.904;-99.054;2024-01-06T11:27:28;15.80;99.90
61386;DHT22;47256;18.904;-99.054;2024-01-06T11:29:56;15.90;99.90
61386;DHT22;47256;18.904;-99.054;2024-01-06T11:32:29;15.90;99.90
61386;DHT22;47256;18.904;-99.054;2024-01-06T11:35:08;15.90;99.90
61386;DHT22;47256;18.904;-99.054;2024-01-06T11:40:10;15.90;99.90
61386;DHT22;47256;18.904;-99.054;2024-01-06T11:42:43;15.90;99.90
61386;DHT22;47256;18.904;-99.054;2024-01-06T11:45:11;15.90;99.90
61386;DHT22;47256;18.904;-99.054;2024-01-06T11:47:41;15.90;99.90
61386;DHT22;47256;18.904;-99.054;2024-01-06T11:50:14;15.90;99.90
61386;DHT22;47256;18.904;-99.054;2024-01-06T11:52:41;15.90;99.90
61386;DHT22;47256;18.904;-99.054;2024-01-06T11:55:09;15.90;99.90
61386;DHT22;47256;18.904;-99.054;2024-01-06T11:57:37;15.90;99.90
61386;DHT22;47256;18.904;-99.054;2024-01-06T12:00:05;15.90;99.90
61386;DHT22;47256;18.904;-99.054;2024-01-06T12:02:33;15.90;99.90
61386;DHT22;47256;18.904;-99.054;2024-01-06T12:05:01;15.90;99.90
61386;DHT22;47256;18.904;-99.054;2024-01-06T12:07:29;16.00;99.90
61386;DHT22;47256;18.904;-99.054;2024-01-06T12:10:02;16.00;99.90
61386;DHT22;47256;18.904;-99.054;2024-01-06T12:12:31;16.00;99.90
61386;DHT22;47256;18.904;-99.054;2024-01-06T12:14:58;16.00;99.90
61386;DHT22;47256;18.904;-99.054;2024-01-06T12:17:30;16.00;99.90
61386;DHT22;47256;18.904;-99.054;2024-01-06T12:19:58;15.90;99.90
61386;DHT22;47256;18.904;-99.054;2024-01-06T12:22:26;15.90;99.90
61386;DHT22;47256;18.904;-99.054;2024-01-06T12:24:53;15.90;99.90
61386;DHT22;47256;18.904;-99.054;2024-01-06T12:27:21;15.80;99.90
61386;DHT22;47256;18.904;-99.054;2024-01-06T12:29:48;15.80;99.90
61386;DHT22;47256;18.904;-99.054;2024-01-06T12:32:15;15.80;99.90
61386;DHT22;47256;18.904;-99.054;2024-01-06T12:34:45;15.90;99.90
61386;DHT22;47256;18.904;-99.054;2024-01-06T12:37:13;15.80;99.90
61386;DHT22;47256;18.904;-99.054;2024-01-06T12:39:41;15.80;99.90
61386;DHT22;47256;18.904;-99.054;2024-01-06T12:42:09;15.70;99.90
61386;DHT22;47256;18.904;-99.054;2024-01-06T12:44:36;15.50;99.90
61386;DHT22;47256;18.904;-99.054;2024-01-06T12:47:06;15.60;99.90
61386;DHT22;47256;18.904;-99.054;2024-01-06T12:49:34;15.60;99.90
61386;DHT22;47256;18.904;-99.054;2024-01-06T12:52:03;15.60;99.90
61386;DHT22;47256;18.904;-99.054;2024-01-06T12:54:30;15.60;99.90
61386;DHT22;47256;18.904;-99.054;2024-01-06T12:56:58;15.60;99.90
61386;DHT22;47256;18.904;-99.054;2024-01-06T12:59:25;15.50;99.90
61386;DHT22;47256;18.904;-99.054;2024-01-06T13:01:56;15.40;99.90
61386;DHT22;47256;18.904;-99.054;2024-01-06T13:04:24;15.50;99.90
61386;DHT22;47256;18.904;-99.054;2024-01-06T13:06:52;15.50;99.90
61386;DHT22;47256;18.904;-99.054;2024-01-06T13:09:20;15.50;99.90
61386;DHT22;47256;18.904;-99.054;2024-01-06T13:11:50;15.60;99.90
61386;DHT22;47256;18.904;-99.054;2024-01-06T13:14:18;15.50;99.90
61386;DHT22;47256;18.904;-99.054;2024-01-06T13:16:45;15.40;99.90
61386;DHT22;47256;18.904;-99.054;2024-01-06T13:19:13;15.40;99.90
61386;DHT22;47256;18.904;-99.054;2024-01-06T13:21:40;15.40;99.90
61386;DHT22;47256;18.904;-99.054;2024-01-06T13:24:08;15.40;99.90
61386;DHT22;47256;18.904;-99.054;2024-01-06T13:26:35;15.50;99.90
61386;DHT22;47256;18.904;-99.054;2024-01-06T13:29:03;15.50;99.90
61386;DHT22;47256;18.904;-99.054;2024-01-06T13:31:31;15.50;99.90
61386;DHT22;47256;18.904;-99.054;2024-01-06T13:33:59;15.50;99.90
61386;DHT22;47256;18.904;-99.054;2024-01-06T13:36:26;15.50;99.90
61386;DHT22;47256;18.904;-99.054;2024-01-06T13:38:54;15.50;99.90
61386;DHT22;47256;18.904;-99.054;2024-01-06T13:41:22;15.50;99.90
61386;DHT22;47256;18.904;-99.054;2024-01-06T13:43:49;15.50;99.90
61386;DHT22;47256;18.904;-99.054;2024-01-06T13:46:17;15.60;99.90
61386;DHT22;47256;18.904;-99.054;2024-01-06T13:48:44;15.70;99.90
61386;DHT22;47256;18.904;-99.054;2024-01-06T13:51:11;15.80;99.90
61386;DHT22;47256;18.904;-99.054;2024-01-06T13:53:40;15.80;99.90
61386;DHT22;47256;18.904;-99.054;2024-01-06T13:56:08;15.70;99.90
61386;DHT22;47256;18.904;-99.054;2024-01-06T13:58:36;15.80;99.90
61386;DHT22;47256;18.904;-99.054;2024-01-06T14:01:05;15.90;99.90
61386;DHT22;47256;18.904;-99.054;2024-01-06T14:03:34;16.00;99.90
61386;DHT22;47256;18.904;-99.054;2024-01-06T14:06:01;16.20;99.90
61386;DHT22;47256;18.904;-99.054;2024-01-06T14:08:31;16.40;99.90
61386;DHT22;47256;18.904;-99.054;2024-01-06T14:10:58;16.50;99.90
61386;DHT22;47256;18.904;-99.054;2024-01-06T14:13:25;16.70;99.90
61386;DHT22;47256;18.904;-99.054;2024-01-06T14:15:53;16.80;99.90
61386;DHT22;47256;18.904;-99.054;2024-01-06T14:18:21;16.90;99.90
61386;DHT22;47256;18.904;-99.054;2024-01-06T14:20:49;17.00;99.90
61386;DHT22;47256;18.904;-99.054;2024-01-06T14:23:16;17.00;99.90
61386;DHT22;47256;18.904;-99.054;2024-01-06T14:25:43;17.10;99.90
61386;DHT22;47256;18.904;-99.054;2024-01-06T14:28:11;17.10;99.90
61386;DHT22;47256;18.904;-99.054;2024-01-06T14:30:38;17.20;99.90
61386;DHT22;47256;18.904;-99.054;2024-01-06T14:33:06;17.30;99.90
61386;DHT22;47256;18.904;-99.054;2024-01-06T14:35:33;17.30;99.90
61386;DHT22;47256;18.904;-99.054;2024-01-06T14:38:00;17.40;99.90
61386;DHT22;47256;18.904;-99.054;2024-01-06T14:40:27;17.50;99.90
61386;DHT22;47256;18.904;-99.054;2024-01-06T14:42:54;17.60;99.90
61386;DHT22;47256;18.904;-99.054;2024-01-06T14:45:24;17.70;99.90
61386;DHT22;47256;18.904;-99.054;2024-01-06T14:47:51;17.90;99.90
61386;DHT22;47256;18.904;-99.054;2024-01-06T14:50:18;18.10;99.90
61386;DHT22;47256;18.904;-99.054;2024-01-06T14:52:46;18.30;99.90
61386;DHT22;47256;18.904;-99.054;2024-01-06T14:55:13;18.50;99.90
61386;DHT22;47256;18.904;-99.054;2024-01-06T14:57:42;18.70;99.90
61386;DHT22;47256;18.904;-99.054;2024-01-06T15:00:09;18.90;99.90
61386;DHT22;47256;18.904;-99.054;2024-01-06T15:03:03;19.00;99.90
61386;DHT22;47256;18.904;-99.054;2024-01-06T15:05:33;19.10;99.90
61386;DHT22;47256;18.904;-99.054;2024-01-06T15:08:00;19.30;99.90
61386;DHT22;47256;18.904;-99.054;2024-01-06T15:10:30;19.50;99.90
61386;DHT22;47256;18.904;-99.054;2024-01-06T15:12:57;19.70;99.90
61386;DHT22;47256;18.904;-99.054;2024-01-06T15:15:24;19.90;99.90
61386;DHT22;47256;18.904;-99.054;2024-01-06T15:17:51;19.90;99.90
61386;DHT22;47256;18.904;-99.054;2024-01-06T15:20:19;20.10;99.90
61386;DHT22;47256;18.904;-99.054;2024-01-06T15:22:46;20.30;99.90